createdAt,value
2018-11-10T00:00:38.068Z,57.00
2018-11-10T00:03:07.768Z,56.10
2018-11-10T00:05:37.025Z,55.40
2018-11-10T00:08:06.290Z,54.80
2018-11-10T00:10:35.553Z,53.90
2018-11-10T00:13:05.023Z,53.50
2018-11-10T00:15:34.349Z,54.70
2018-11-10T00:18:03.624Z,52.90
2018-11-10T00:20:32.838Z,55.20
2018-11-10T00:23:02.084Z,53.60
2018-11-10T00:25:31.291Z,54.30
2018-11-10T00:28:00.630Z,55.40
2018-11-10T00:30:29.878Z,54.20
2018-11-10T00:32:59.117Z,54.70
2018-11-10T00:35:28.352Z,54.90
2018-11-10T00:37:57.556Z,55.50
2018-11-10T00:40:26.867Z,55.80
2018-11-10T00:42:56.127Z,54.80
2018-11-10T00:45:25.724Z,55.20
2018-11-10T00:47:55.020Z,55.00
2018-11-10T00:50:24.317Z,54.20
2018-11-10T00:52:53.717Z,54.20
2018-11-10T00:55:22.997Z,55.20
2018-11-10T00:57:52.220Z,55.20
2018-11-10T01:00:21.453Z,53.30
2018-11-10T01:02:50.667Z,53.10
2018-11-10T01:05:19.881Z,52.70
2018-11-10T01:07:49.177Z,53.10
2018-11-10T01:10:18.395Z,53.30
2018-11-10T01:12:47.606Z,53.90
2018-11-10T01:15:17.257Z,54.00
2018-11-10T01:17:46.497Z,53.70
2018-11-10T01:20:15.812Z,53.50
2018-11-10T01:22:45.103Z,55.10
2018-11-10T01:25:14.369Z,55.80
2018-11-10T01:27:43.690Z,55.70
2018-11-10T01:30:15.988Z,56.10
2018-11-10T01:32:46.297Z,55.50
2018-11-10T01:35:16.061Z,55.40
2018-11-10T01:37:45.376Z,55.50
2018-11-10T01:40:15.257Z,56.50
2018-11-10T01:42:44.895Z,56.70
2018-11-10T01:45:15.620Z,57.10
2018-11-10T01:47:45.223Z,57.10
2018-11-10T01:50:14.554Z,57.50
2018-11-10T01:52:43.982Z,57.60
2018-11-10T01:55:13.403Z,57.80
2018-11-10T01:57:43.251Z,57.50
2018-11-10T02:00:15.133Z,57.50
2018-11-10T02:02:45.122Z,57.70
2018-11-10T02:05:14.592Z,57.80
2018-11-10T02:07:43.917Z,57.70
2018-11-10T02:10:13.471Z,56.80
2018-11-10T02:12:43.041Z,56.70
2018-11-10T02:15:14.673Z,55.10
2018-11-10T02:17:44.529Z,56.10
2018-11-10T02:20:14.912Z,54.80
2018-11-10T02:22:44.467Z,54.80
2018-11-10T02:25:13.875Z,55.20
2018-11-10T02:27:43.360Z,54.30
2018-11-10T02:30:13.157Z,54.80
2018-11-10T02:32:42.944Z,54.60
2018-11-10T02:35:12.631Z,54.30
2018-11-10T02:37:42.043Z,54.20
2018-11-10T02:40:13.147Z,53.70
2018-11-10T02:42:42.829Z,53.40
2018-11-10T02:45:13.721Z,51.70
2018-11-10T02:47:43.863Z,53.10
2018-11-10T02:50:13.109Z,53.60
2018-11-10T02:52:42.625Z,52.00
2018-11-10T02:55:12.267Z,49.60
2018-11-10T02:57:42.048Z,49.60
2018-11-10T03:00:12.732Z,50.60
2018-11-10T03:02:41.972Z,50.70
2018-11-10T03:05:11.531Z,50.50
2018-11-10T03:07:41.024Z,49.90
2018-11-10T03:10:11.379Z,49.40
2018-11-10T03:12:41.494Z,47.60
2018-11-10T03:15:11.682Z,46.70
2018-11-10T03:17:40.939Z,46.40
2018-11-10T03:20:12.584Z,45.60
2018-11-10T03:22:41.901Z,46.40
2018-11-10T03:25:11.467Z,47.30
2018-11-10T03:27:41.043Z,46.50
2018-11-10T03:30:10.611Z,46.30
2018-11-10T03:32:39.799Z,48.00
2018-11-10T03:35:09.579Z,47.90
2018-11-10T03:37:38.971Z,48.60
2018-11-10T03:40:10.818Z,47.80
2018-11-10T03:42:40.651Z,48.80
2018-11-10T03:45:11.262Z,48.70
2018-11-10T03:47:40.563Z,47.40
2018-11-10T03:50:10.786Z,47.50
2018-11-10T03:52:40.060Z,48.00
2018-11-10T03:55:09.823Z,47.70
2018-11-10T03:57:39.292Z,49.60
2018-11-10T04:00:12.501Z,49.70
2018-11-10T04:02:43.391Z,49.50
2018-11-10T04:05:13.205Z,49.30
2018-11-10T04:07:43.888Z,50.20
2018-11-10T04:10:13.904Z,49.80
2018-11-10T04:12:43.237Z,48.10
2018-11-10T04:15:12.557Z,47.60
2018-11-10T04:17:41.770Z,49.20
2018-11-10T04:20:11.426Z,48.90
2018-11-10T04:22:40.667Z,48.50
2018-11-10T04:25:11.222Z,47.70
2018-11-10T04:27:40.516Z,49.00
2018-11-10T04:30:10.595Z,49.20
2018-11-10T04:32:39.866Z,49.20
2018-11-10T04:35:09.348Z,48.20
2018-11-10T04:37:38.579Z,48.70
2018-11-10T04:40:08.930Z,49.00
2018-11-10T04:42:38.115Z,50.60
2018-11-10T04:45:08.676Z,50.10
2018-11-10T04:47:37.927Z,48.30
2018-11-10T04:50:08.562Z,48.10
2018-11-10T04:52:37.775Z,48.10
2018-11-10T04:55:07.300Z,49.00
2018-11-10T04:57:36.553Z,50.10
2018-11-10T05:00:07.903Z,49.80
2018-11-10T05:02:37.123Z,49.30
2018-11-10T05:05:06.760Z,48.20
2018-11-10T05:07:36.084Z,48.10
2018-11-10T05:10:06.112Z,48.60
2018-11-10T05:12:35.481Z,48.40
2018-11-10T05:15:05.288Z,47.00
2018-11-10T05:17:34.460Z,47.30
2018-11-10T05:20:03.771Z,48.40
2018-11-10T05:22:32.943Z,48.40
2018-11-10T05:25:02.264Z,47.90
2018-11-10T05:27:31.471Z,48.50
2018-11-10T05:30:01.187Z,48.50
2018-11-10T05:32:30.404Z,48.80
2018-11-10T05:34:59.647Z,48.90
2018-11-10T05:37:28.887Z,48.00
2018-11-10T05:39:58.092Z,48.70
2018-11-10T05:42:27.338Z,47.40
2018-11-10T05:44:56.551Z,47.90
2018-11-10T05:47:25.763Z,47.80
2018-11-10T05:49:55.001Z,48.10
2018-11-10T05:52:24.248Z,47.10
2018-11-10T05:54:53.508Z,48.80
2018-11-10T05:57:22.735Z,48.50
2018-11-10T05:59:51.963Z,48.70
2018-11-10T06:02:21.162Z,49.10
2018-11-10T06:04:50.511Z,48.60
2018-11-10T06:07:19.705Z,48.20
2018-11-10T06:09:49.028Z,48.20
2018-11-10T06:12:18.265Z,49.10
2018-11-10T06:14:47.513Z,49.20
2018-11-10T06:17:16.729Z,49.90
2018-11-10T06:19:46.077Z,49.40
2018-11-10T06:22:15.279Z,48.80
2018-11-10T06:24:44.586Z,49.60
2018-11-10T06:27:13.943Z,49.40
2018-11-10T06:29:43.147Z,48.70
2018-11-10T06:32:12.366Z,48.40
2018-11-10T06:34:41.527Z,48.30
2018-11-10T06:37:10.748Z,48.80
2018-11-10T06:39:39.909Z,48.00
2018-11-10T06:42:09.140Z,48.60
2018-11-10T06:44:38.397Z,48.60
2018-11-10T06:47:07.640Z,48.20
2018-11-10T06:49:36.831Z,48.80
2018-11-10T06:52:06.095Z,48.90
2018-11-10T06:54:35.359Z,48.70
2018-11-10T06:57:04.638Z,48.80
2018-11-10T06:59:33.884Z,49.00
2018-11-10T07:02:03.145Z,49.00
2018-11-10T07:04:32.766Z,48.90
2018-11-10T07:07:02.144Z,48.60
2018-11-10T07:09:31.444Z,48.60
2018-11-10T07:12:00.733Z,48.80
2018-11-10T07:14:30.036Z,49.70
2018-11-10T07:16:59.245Z,49.40
2018-11-10T07:19:28.487Z,49.20
2018-11-10T07:21:57.716Z,48.40
2018-11-10T07:24:27.102Z,48.80
2018-11-10T07:26:56.422Z,49.20
2018-11-10T07:29:27.358Z,49.20
2018-11-10T07:31:56.892Z,49.70
2018-11-10T07:34:26.009Z,50.00
2018-11-10T07:36:55.298Z,50.20
2018-11-10T07:39:24.527Z,50.10
2018-11-10T07:41:53.775Z,50.30
2018-11-10T07:44:23.116Z,50.60
2018-11-10T07:46:52.336Z,50.50
2018-11-10T07:49:21.597Z,51.20
2018-11-10T07:51:50.944Z,51.70
2018-11-10T07:54:20.207Z,51.00
2018-11-10T07:56:49.450Z,51.00
2018-11-10T07:59:19.005Z,51.10
2018-11-10T08:01:48.291Z,51.10
2018-11-10T08:04:19.021Z,51.40
2018-11-10T08:06:49.067Z,54.00
2018-11-10T08:09:19.813Z,56.90
2018-11-10T08:11:49.288Z,58.30
2018-11-10T08:14:18.495Z,56.50
2018-11-10T08:16:47.779Z,55.30
2018-11-10T08:19:17.108Z,55.00
2018-11-10T08:21:46.498Z,56.30
2018-11-10T08:24:15.823Z,56.70
2018-11-10T08:26:45.032Z,56.10
2018-11-10T08:29:14.301Z,55.20
2018-11-10T08:31:43.701Z,56.00
2018-11-10T08:34:13.132Z,56.90
2018-11-10T08:36:42.425Z,56.60
2018-11-10T08:39:11.916Z,55.50
2018-11-10T08:41:41.185Z,54.70
2018-11-10T08:44:10.489Z,56.20
2018-11-10T08:46:39.744Z,56.70
2018-11-10T08:49:10.137Z,57.60
2018-11-10T08:51:39.482Z,57.80
2018-11-10T08:54:08.904Z,58.50
2018-11-10T08:56:38.162Z,59.30
2018-11-10T08:59:07.483Z,58.40
2018-11-10T09:01:36.732Z,57.60
2018-11-10T09:04:06.333Z,57.90
2018-11-10T09:06:35.576Z,57.30
2018-11-10T09:09:06.971Z,58.60
2018-11-10T09:11:36.186Z,60.50
2018-11-10T09:14:05.929Z,58.40
2018-11-10T09:16:35.163Z,58.90
2018-11-10T09:19:04.519Z,57.80
2018-11-10T09:21:33.838Z,57.50
2018-11-10T09:24:15.610Z,57.20
2018-11-10T09:26:44.923Z,57.80
2018-11-10T09:29:14.224Z,57.00
2018-11-10T09:31:43.530Z,57.20
2018-11-10T09:34:12.916Z,57.50
2018-11-10T09:36:42.212Z,58.30
2018-11-10T09:39:11.443Z,57.20
2018-11-10T09:41:40.702Z,59.10
2018-11-10T09:44:09.941Z,58.20
2018-11-10T09:46:39.201Z,57.90
2018-11-10T09:49:08.497Z,56.90
2018-11-10T09:51:38.091Z,59.30
2018-11-10T09:54:07.344Z,58.10
2018-11-10T09:56:36.612Z,58.80
2018-11-10T09:59:06.239Z,59.40
2018-11-10T10:01:35.656Z,59.30
2018-11-10T10:04:05.241Z,61.30
2018-11-10T10:06:34.536Z,59.80
2018-11-10T10:09:04.196Z,60.10
2018-11-10T10:11:33.561Z,60.80
2018-11-10T10:14:02.824Z,61.20
2018-11-10T10:16:32.100Z,61.20
2018-11-10T10:19:01.357Z,62.70
2018-11-10T10:21:30.593Z,62.60
2018-11-10T10:23:59.835Z,62.50
2018-11-10T10:26:29.091Z,63.60
2018-11-10T10:28:58.318Z,63.30
2018-11-10T10:31:27.560Z,64.00
2018-11-10T10:33:56.925Z,64.30
2018-11-10T10:36:26.215Z,64.90
2018-11-10T10:38:55.531Z,64.10
2018-11-10T10:41:24.807Z,64.30
2018-11-10T10:43:54.116Z,64.70
2018-11-10T10:46:24.045Z,65.00
2018-11-10T10:48:53.485Z,64.60
2018-11-10T10:51:23.036Z,64.90
2018-11-10T10:53:52.220Z,64.70
2018-11-10T10:56:21.512Z,64.90
2018-11-10T10:58:50.766Z,64.10
2018-11-10T11:01:25.045Z,64.60
2018-11-10T11:03:59.312Z,65.50
2018-11-10T11:06:28.634Z,65.40
2018-11-10T11:08:57.991Z,66.70
2018-11-10T11:11:27.195Z,68.30
2018-11-10T11:13:56.526Z,68.50
2018-11-10T11:16:25.849Z,69.90
2018-11-10T11:18:55.067Z,71.00
2018-11-10T11:21:24.377Z,71.00
2018-11-10T11:23:53.565Z,71.00
2018-11-10T11:26:22.788Z,71.50
2018-11-10T11:28:52.016Z,70.40
2018-11-10T11:31:21.306Z,67.70
2018-11-10T11:33:50.656Z,68.30
2018-11-10T11:36:19.928Z,69.40
2018-11-10T11:38:49.250Z,70.50
2018-11-10T11:41:18.657Z,68.00
2018-11-10T11:43:47.847Z,66.60
2018-11-10T11:46:17.091Z,60.30
2018-11-10T11:48:46.303Z,59.10
2018-11-10T11:51:15.596Z,58.70
2018-11-10T11:53:44.861Z,62.00
2018-11-10T11:56:14.124Z,62.50
2018-11-10T11:58:43.347Z,62.60
2018-11-10T12:01:12.576Z,60.00
2018-11-10T12:03:41.831Z,60.10
2018-11-10T12:06:11.138Z,62.00
2018-11-10T12:08:40.383Z,63.20
2018-11-10T12:11:09.623Z,65.30
2018-11-10T12:13:38.884Z,65.30
2018-11-10T12:16:08.322Z,66.30
2018-11-10T12:18:37.758Z,66.00
2018-11-10T12:21:07.322Z,66.40
2018-11-10T12:23:36.633Z,65.10
2018-11-10T12:26:06.171Z,64.30
2018-11-10T12:28:35.470Z,62.00
2018-11-10T12:31:05.124Z,63.20
2018-11-10T12:33:34.492Z,63.70
2018-11-10T12:36:03.728Z,64.30
2018-11-10T12:38:33.094Z,65.00
2018-11-10T12:41:02.403Z,65.10
2018-11-10T12:43:31.627Z,66.00
2018-11-10T12:46:00.875Z,64.10
2018-11-10T12:48:30.260Z,64.80
2018-11-10T12:50:59.645Z,66.00
2018-11-10T12:53:29.129Z,65.80
2018-11-10T12:55:58.417Z,65.50
2018-11-10T12:58:27.660Z,65.70
2018-11-10T13:00:56.925Z,66.50
2018-11-10T13:03:26.248Z,66.90
2018-11-10T13:05:55.483Z,67.30
2018-11-10T13:08:24.746Z,67.90
2018-11-10T13:10:54.023Z,69.00
2018-11-10T13:13:23.426Z,68.70
2018-11-10T13:15:52.682Z,69.40
2018-11-10T13:18:21.944Z,69.10
2018-11-10T13:20:51.420Z,70.70
2018-11-10T13:23:20.703Z,72.50
2018-11-10T13:25:49.963Z,74.40
2018-11-10T13:28:19.202Z,75.20
2018-11-10T13:30:49.230Z,76.40
2018-11-10T13:33:18.536Z,77.80
2018-11-10T13:35:47.845Z,79.00
2018-11-10T13:38:17.133Z,81.00
2018-11-10T13:40:46.479Z,82.50
2018-11-10T13:43:15.970Z,84.30
2018-11-10T13:45:45.362Z,84.60
2018-11-10T13:48:14.800Z,85.20
2018-11-10T13:50:44.292Z,86.40
2018-11-10T13:53:13.537Z,86.20
2018-11-10T13:55:42.900Z,87.20
2018-11-10T13:58:12.176Z,87.60
2018-11-10T14:00:41.502Z,87.90
2018-11-10T14:03:10.879Z,88.20
2018-11-10T14:05:40.258Z,88.20
2018-11-10T14:08:09.553Z,86.20
2018-11-10T14:10:38.946Z,85.10
2018-11-10T14:19:17.748Z,82.70
2018-11-10T14:21:47.089Z,81.60
2018-11-10T14:24:16.438Z,78.10
2018-11-10T14:26:46.852Z,77.50
2018-11-10T14:29:16.075Z,77.20
2018-11-10T14:31:45.297Z,75.10
2018-11-10T14:34:14.565Z,72.00
2018-11-10T14:36:43.856Z,69.30
2018-11-10T14:39:13.444Z,68.10
2018-11-10T14:41:42.739Z,66.60
2018-11-10T14:44:19.160Z,64.70
2018-11-10T14:46:48.428Z,64.50
2018-11-10T14:49:17.652Z,65.50
2018-11-10T14:51:46.904Z,66.10
2018-11-10T14:54:17.229Z,64.40
2018-11-10T14:56:46.495Z,62.70
2018-11-10T14:59:15.816Z,61.60
2018-11-10T15:04:38.447Z,60.60
2018-11-10T15:07:07.759Z,61.30
2018-11-10T15:09:37.026Z,62.50
2018-11-10T15:12:06.347Z,61.60
2018-11-10T15:14:35.630Z,61.10
2018-11-10T15:17:04.966Z,61.30
2018-11-10T15:19:34.221Z,61.40
2018-11-10T15:22:03.506Z,61.70
2018-11-10T15:24:32.685Z,61.90
2018-11-10T15:27:02.127Z,61.40
2018-11-10T15:29:31.441Z,60.70
2018-11-10T15:32:00.752Z,60.90
2018-11-10T15:34:30.052Z,60.60
2018-11-10T15:36:59.360Z,60.50
2018-11-10T15:39:28.643Z,60.40
2018-11-10T15:41:57.922Z,59.00
2018-11-10T15:44:27.234Z,58.90
2018-11-10T15:46:56.567Z,58.90
2018-11-10T15:49:25.851Z,58.50
2018-11-10T15:51:55.160Z,58.10
2018-11-10T15:54:24.399Z,58.10
2018-11-10T15:56:53.716Z,58.40
2018-11-10T15:59:22.903Z,58.90
2018-11-10T16:01:52.165Z,58.80
2018-11-10T16:04:21.339Z,58.70
2018-11-10T16:06:50.547Z,59.20
2018-11-10T16:09:19.879Z,59.70
2018-11-10T16:11:49.091Z,60.40
2018-11-10T16:14:18.324Z,60.30
2018-11-10T16:16:47.572Z,60.30
2018-11-10T16:19:16.790Z,60.60
2018-11-10T16:21:46.066Z,60.60
2018-11-10T16:24:15.434Z,60.80
2018-11-10T16:26:44.650Z,61.00
2018-11-10T16:29:13.880Z,61.30
2018-11-10T16:31:43.113Z,61.60
2018-11-10T16:34:12.381Z,61.80
2018-11-10T16:36:41.860Z,62.20
2018-11-10T16:39:11.710Z,62.60
2018-11-10T16:41:41.049Z,63.20
2018-11-10T16:44:10.283Z,63.40
2018-11-10T16:46:39.501Z,63.70
2018-11-10T16:49:08.776Z,64.00
2018-11-10T16:51:38.179Z,64.50
2018-11-10T16:54:07.502Z,65.30
2018-11-10T16:56:36.801Z,66.70
2018-11-10T16:59:07.958Z,67.70
2018-11-10T17:01:38.383Z,68.60
2018-11-10T17:04:07.756Z,68.60
2018-11-10T17:06:37.243Z,70.00
2018-11-10T17:09:08.958Z,69.90
2018-11-10T17:11:38.256Z,70.20
2018-11-10T17:14:08.198Z,70.80
2018-11-10T17:16:37.675Z,70.60
2018-11-10T17:19:07.718Z,72.20
2018-11-10T17:21:37.073Z,71.70
2018-11-10T17:24:06.284Z,73.00
2018-11-10T17:26:35.540Z,73.00
2018-11-10T17:29:04.795Z,72.60
2018-11-10T17:31:36.864Z,72.70
2018-11-10T17:34:06.720Z,72.80
2018-11-10T17:36:35.990Z,73.00
2018-11-10T17:39:06.910Z,73.30
2018-11-10T17:41:36.310Z,73.70
2018-11-10T17:44:06.040Z,74.20
2018-11-10T17:46:35.306Z,74.50
2018-11-10T17:49:04.682Z,75.10
2018-11-10T17:51:33.899Z,75.20
2018-11-10T17:54:03.125Z,75.90
2018-11-10T17:56:32.646Z,76.00
2018-11-10T17:59:01.935Z,75.60
2018-11-10T18:01:31.883Z,76.10
2018-11-10T18:04:01.473Z,78.00
2018-11-10T18:06:31.054Z,78.10
2018-11-10T18:09:00.596Z,77.50
2018-11-10T18:11:30.370Z,77.50
2018-11-10T18:14:00.118Z,77.20
2018-11-10T18:16:29.876Z,77.00
2018-11-10T18:18:59.479Z,77.70
2018-11-10T18:21:29.231Z,78.80
2018-11-10T18:23:58.846Z,77.60
2018-11-10T18:26:28.401Z,77.90
2018-11-10T18:28:57.970Z,77.40
2018-11-10T18:31:27.444Z,77.40
2018-11-10T18:33:56.985Z,77.30
2018-11-10T18:36:26.550Z,77.10
2018-11-10T18:38:55.915Z,77.10
2018-11-10T18:41:25.299Z,77.30
2018-11-10T18:43:54.743Z,77.70
2018-11-10T18:46:24.101Z,77.70
2018-11-10T18:48:53.484Z,77.40
2018-11-10T18:51:22.905Z,77.20
2018-11-10T18:53:52.552Z,77.20
2018-11-10T18:56:22.059Z,77.30
2018-11-10T18:58:51.669Z,77.30
2018-11-10T19:01:21.128Z,77.60
2018-11-10T19:03:50.772Z,77.50
2018-11-10T19:06:20.237Z,77.50
2018-11-10T19:08:49.736Z,78.00
2018-11-10T19:11:19.095Z,77.70
2018-11-10T19:13:48.635Z,77.50
2018-11-10T19:16:17.948Z,77.60
2018-11-10T19:18:47.363Z,77.60
2018-11-10T19:21:16.785Z,77.70
2018-11-10T19:23:46.012Z,78.00
2018-11-10T19:26:15.286Z,77.70
2018-11-10T19:28:44.470Z,77.60
2018-11-10T19:31:13.639Z,77.80
2018-11-10T19:33:42.927Z,78.00
2018-11-10T19:36:12.131Z,78.50
2018-11-10T19:38:41.365Z,79.00
2018-11-10T19:41:10.663Z,79.00
2018-11-10T19:43:39.970Z,79.70
2018-11-10T19:46:09.256Z,80.40
2018-11-10T19:48:38.523Z,80.60
2018-11-10T19:51:12.775Z,80.40
2018-11-10T19:53:42.819Z,81.00
2018-11-10T19:56:12.574Z,81.30
2018-11-10T19:58:41.855Z,80.40
2018-11-10T20:01:11.721Z,81.40
2018-11-10T20:03:41.093Z,81.20
2018-11-10T20:06:10.347Z,82.00
2018-11-10T20:08:39.600Z,82.10
2018-11-10T20:11:08.827Z,81.70
2018-11-10T20:13:38.063Z,81.60
2018-11-10T20:16:07.462Z,82.00
2018-11-10T20:18:36.655Z,81.80
2018-11-10T20:21:05.918Z,81.10
2018-11-10T20:23:35.180Z,81.20
2018-11-10T20:26:04.392Z,81.50
2018-11-10T20:28:33.677Z,81.10
2018-11-10T20:31:02.975Z,81.10
2018-11-10T20:33:32.214Z,80.80
2018-11-10T20:36:01.399Z,80.40
2018-11-10T20:38:30.666Z,80.80
2018-11-10T20:40:59.891Z,80.60
2018-11-10T20:43:29.311Z,80.40
2018-11-10T20:45:58.532Z,81.00
2018-11-10T20:48:27.835Z,81.30
2018-11-10T20:50:57.125Z,81.20
2018-11-10T20:53:26.379Z,81.30
2018-11-10T20:55:55.797Z,81.60
2018-11-10T20:58:25.042Z,81.90
2018-11-10T21:00:54.238Z,82.10
2018-11-10T21:03:23.532Z,82.00
2018-11-10T21:05:52.945Z,82.20
2018-11-10T21:08:22.080Z,82.20
2018-11-10T21:10:51.300Z,82.50
2018-11-10T21:13:20.500Z,82.60
2018-11-10T21:15:50.319Z,82.60
2018-11-10T21:18:19.625Z,82.60
2018-11-10T21:20:49.000Z,82.70
2018-11-10T21:23:18.283Z,82.90
2018-11-10T21:25:47.578Z,83.00
2018-11-10T21:28:16.985Z,83.80
2018-11-10T21:30:46.288Z,83.80
2018-11-10T21:33:15.615Z,84.10
2018-11-10T21:35:45.067Z,84.30
2018-11-10T21:38:14.596Z,84.30
2018-11-10T21:40:44.198Z,84.30
2018-11-10T21:43:14.709Z,84.40
2018-11-10T21:45:44.041Z,84.10
2018-11-10T21:48:13.589Z,83.60
2018-11-10T21:50:42.987Z,84.30
2018-11-10T21:53:12.324Z,83.10
2018-11-10T21:55:41.895Z,82.90
2018-11-10T21:58:11.290Z,83.20
2018-11-10T22:00:41.092Z,82.90
2018-11-10T22:03:10.581Z,82.90
2018-11-10T22:05:40.000Z,82.80
2018-11-10T22:08:09.265Z,82.40
2018-11-10T22:10:38.820Z,83.00
2018-11-10T22:13:08.348Z,82.30
2018-11-10T22:15:38.099Z,82.60
2018-11-10T22:18:07.813Z,82.50
2018-11-10T22:20:37.385Z,82.50
2018-11-10T22:23:06.957Z,82.50
2018-11-10T22:25:36.467Z,82.70
2018-11-10T22:28:06.419Z,82.70
2018-11-10T22:30:35.842Z,82.90
2018-11-10T22:33:05.238Z,83.00
2018-11-10T22:35:35.852Z,82.70
2018-11-10T22:38:05.291Z,82.70
2018-11-10T22:40:35.242Z,82.60
2018-11-10T22:43:04.843Z,82.60
2018-11-10T22:45:34.239Z,82.50
2018-11-10T22:48:03.530Z,82.70
2018-11-10T22:50:32.886Z,82.80
2018-11-10T22:53:02.221Z,82.60
2018-11-10T22:55:31.467Z,82.60
2018-11-10T22:58:00.789Z,82.20
2018-11-10T23:00:30.070Z,82.00
2018-11-10T23:03:00.711Z,81.70
2018-11-10T23:05:30.038Z,81.50
2018-11-10T23:07:59.259Z,81.50
2018-11-10T23:10:28.502Z,81.40
2018-11-10T23:12:57.837Z,81.20
2018-11-10T23:15:27.057Z,81.10
2018-11-10T23:17:56.342Z,81.10
2018-11-10T23:20:25.556Z,80.90
2018-11-10T23:22:54.757Z,80.70
2018-11-10T23:25:24.068Z,80.80
2018-11-10T23:27:53.475Z,80.60
2018-11-10T23:30:23.500Z,80.50
2018-11-10T23:32:52.771Z,80.20
2018-11-10T23:35:21.971Z,80.00
2018-11-10T23:37:51.173Z,79.70
2018-11-10T23:40:20.403Z,79.50
2018-11-10T23:42:49.629Z,79.50
2018-11-10T23:45:18.859Z,79.20
2018-11-10T23:47:48.130Z,79.30
2018-11-10T23:50:18.404Z,79.50
2018-11-10T23:52:47.675Z,78.90
2018-11-10T23:55:17.431Z,78.90
2018-11-10T23:57:46.647Z,78.90
